sensor_id;sensor_type;location;lat;lon;timestamp;P1;durP1;ratioP1;P2;durP2;ratioP2
18651;SDS011;9455;54.302;10.124;2023-04-03T00:01:02;9.77;;;2.50;;
18651;SDS011;9455;54.302;10.124;2023-04-03T00:03:31;2.20;;;2.00;;
18651;SDS011;9455;54.302;10.124;2023-04-03T00:05:58;3.53;;;2.20;;
18651;SDS011;9455;54.302;10.124;2023-04-03T00:08:24;2.20;;;1.83;;
18651;SDS011;9455;54.302;10.124;2023-04-03T00:10:51;2.20;;;1.30;;
18651;SDS011;9455;54.302;10.124;2023-04-03T00:13:18;4.70;;;2.03;;
18651;SDS011;9455;54.302;10.124;2023-04-03T00:15:44;4.40;;;1.70;;
18651;SDS011;9455;54.302;10.124;2023-04-03T00:18:11;2.63;;;1.77;;
18651;SDS011;9455;54.302;10.124;2023-04-03T00:20:39;5.40;;;1.80;;
18651;SDS011;9455;54.302;10.124;2023-04-03T00:23:06;4.07;;;1.80;;
18651;SDS011;9455;54.302;10.124;2023-04-03T00:25:32;2.10;;;1.80;;
18651;SDS011;9455;54.302;10.124;2023-04-03T00:28:00;4.33;;;1.60;;
18651;SDS011;9455;54.302;10.124;2023-04-03T00:30:26;2.73;;;1.40;;
18651;SDS011;9455;54.302;10.124;2023-04-03T00:32:53;1.37;;;1.37;;
18651;SDS011;9455;54.302;10.124;2023-04-03T00:35:20;5.17;;;2.00;;
18651;SDS011;9455;54.302;10.124;2023-04-03T00:37:50;4.83;;;1.53;;
18651;SDS011;9455;54.302;10.124;2023-04-03T00:40:17;8.33;;;2.10;;
18651;SDS011;9455;54.302;10.124;2023-04-03T00:42:45;3.37;;;1.83;;
18651;SDS011;9455;54.302;10.124;2023-04-03T00:45:30;2.33;;;1.43;;
18651;SDS011;9455;54.302;10.124;2023-04-03T00:47:59;4.97;;;1.57;;
18651;SDS011;9455;54.302;10.124;2023-04-03T00:50:30;5.77;;;2.03;;
18651;SDS011;9455;54.302;10.124;2023-04-03T00:53:00;1.70;;;1.60;;
18651;SDS011;9455;54.302;10.124;2023-04-03T00:55:27;1.80;;;1.70;;
18651;SDS011;9455;54.302;10.124;2023-04-03T00:57:54;8.40;;;1.80;;
18651;SDS011;9455;54.302;10.124;2023-04-03T01:00:21;2.30;;;2.00;;
18651;SDS011;9455;54.302;10.124;2023-04-03T01:02:49;2.37;;;1.43;;
18651;SDS011;9455;54.302;10.124;2023-04-03T01:05:16;1.90;;;1.67;;
18651;SDS011;9455;54.302;10.124;2023-04-03T01:07:44;1.90;;;1.80;;
18651;SDS011;9455;54.302;10.124;2023-04-03T01:10:14;3.13;;;1.70;;
18651;SDS011;9455;54.302;10.124;2023-04-03T01:12:45;3.37;;;1.57;;
18651;SDS011;9455;54.302;10.124;2023-04-03T01:15:13;1.53;;;1.40;;
18651;SDS011;9455;54.302;10.124;2023-04-03T01:17:42;1.90;;;1.80;;
18651;SDS011;9455;54.302;10.124;2023-04-03T01:20:19;5.60;;;1.80;;
18651;SDS011;9455;54.302;10.124;2023-04-03T01:23:18;8.13;;;1.90;;
18651;SDS011;9455;54.302;10.124;2023-04-03T01:25:55;5.10;;;1.90;;
18651;SDS011;9455;54.302;10.124;2023-04-03T01:28:23;2.50;;;1.90;;
18651;SDS011;9455;54.302;10.124;2023-04-03T01:30:58;3.93;;;1.90;;
18651;SDS011;9455;54.302;10.124;2023-04-03T01:33:30;3.17;;;1.80;;
18651;SDS011;9455;54.302;10.124;2023-04-03T01:35:57;1.83;;;1.70;;
18651;SDS011;9455;54.302;10.124;2023-04-03T01:38:23;2.73;;;1.80;;
18651;SDS011;9455;54.302;10.124;2023-04-03T01:40:50;2.07;;;1.80;;
18651;SDS011;9455;54.302;10.124;2023-04-03T01:43:16;1.67;;;1.60;;
18651;SDS011;9455;54.302;10.124;2023-04-03T01:45:43;1.83;;;1.70;;
18651;SDS011;9455;54.302;10.124;2023-04-03T01:48:11;2.60;;;1.70;;
18651;SDS011;9455;54.302;10.124;2023-04-03T01:50:39;2.57;;;1.53;;
18651;SDS011;9455;54.302;10.124;2023-04-03T01:53:06;4.43;;;2.37;;
18651;SDS011;9455;54.302;10.124;2023-04-03T01:55:32;6.50;;;1.80;;
18651;SDS011;9455;54.302;10.124;2023-04-03T01:57:59;4.30;;;1.63;;
18651;SDS011;9455;54.302;10.124;2023-04-03T02:00:25;3.73;;;1.93;;
18651;SDS011;9455;54.302;10.124;2023-04-03T02:02:52;2.67;;;1.90;;
18651;SDS011;9455;54.302;10.124;2023-04-03T02:05:19;4.40;;;1.80;;
18651;SDS011;9455;54.302;10.124;2023-04-03T02:07:47;2.93;;;1.60;;
18651;SDS011;9455;54.302;10.124;2023-04-03T02:10:14;6.13;;;2.13;;
18651;SDS011;9455;54.302;10.124;2023-04-03T02:12:40;9.30;;;1.90;;
18651;SDS011;9455;54.302;10.124;2023-04-03T02:15:07;2.77;;;1.77;;
18651;SDS011;9455;54.302;10.124;2023-04-03T02:17:35;7.00;;;2.07;;
18651;SDS011;9455;54.302;10.124;2023-04-03T02:20:02;1.63;;;1.57;;
18651;SDS011;9455;54.302;10.124;2023-04-03T02:22:29;5.30;;;2.30;;
18651;SDS011;9455;54.302;10.124;2023-04-03T02:24:57;6.20;;;2.20;;
18651;SDS011;9455;54.302;10.124;2023-04-03T02:27:24;4.27;;;1.93;;
18651;SDS011;9455;54.302;10.124;2023-04-03T02:29:50;3.33;;;2.00;;
18651;SDS011;9455;54.302;10.124;2023-04-03T02:32:17;4.50;;;1.90;;
18651;SDS011;9455;54.302;10.124;2023-04-03T02:34:43;4.20;;;2.67;;
18651;SDS011;9455;54.302;10.124;2023-04-03T02:37:11;2.37;;;2.20;;
18651;SDS011;9455;54.302;10.124;2023-04-03T02:39:37;6.03;;;2.20;;
18651;SDS011;9455;54.302;10.124;2023-04-03T02:42:05;4.57;;;2.27;;
18651;SDS011;9455;54.302;10.124;2023-04-03T02:44:32;4.03;;;2.93;;
18651;SDS011;9455;54.302;10.124;2023-04-03T02:46:59;4.30;;;2.27;;
18651;SDS011;9455;54.302;10.124;2023-04-03T02:49:25;3.93;;;2.17;;
18651;SDS011;9455;54.302;10.124;2023-04-03T02:51:52;6.43;;;2.30;;
18651;SDS011;9455;54.302;10.124;2023-04-03T02:54:18;4.30;;;2.30;;
18651;SDS011;9455;54.302;10.124;2023-04-03T02:56:45;11.53;;;2.27;;
18651;SDS011;9455;54.302;10.124;2023-04-03T02:59:13;8.70;;;2.23;;
18651;SDS011;9455;54.302;10.124;2023-04-03T03:01:40;4.20;;;2.10;;
18651;SDS011;9455;54.302;10.124;2023-04-03T03:04:06;6.83;;;2.17;;
18651;SDS011;9455;54.302;10.124;2023-04-03T03:06:33;5.57;;;2.97;;
18651;SDS011;9455;54.302;10.124;2023-04-03T03:09:00;4.00;;;2.17;;
18651;SDS011;9455;54.302;10.124;2023-04-03T03:11:26;4.60;;;2.50;;
18651;SDS011;9455;54.302;10.124;2023-04-03T03:13:53;5.77;;;2.17;;
18651;SDS011;9455;54.302;10.124;2023-04-03T03:16:21;4.87;;;2.50;;
18651;SDS011;9455;54.302;10.124;2023-04-03T03:18:48;2.90;;;2.50;;
18651;SDS011;9455;54.302;10.124;2023-04-03T03:21:14;3.87;;;2.40;;
18651;SDS011;9455;54.302;10.124;2023-04-03T03:23:41;2.93;;;2.40;;
18651;SDS011;9455;54.302;10.124;2023-04-03T03:26:08;3.10;;;2.07;;
18651;SDS011;9455;54.302;10.124;2023-04-03T03:28:36;3.97;;;2.20;;
18651;SDS011;9455;54.302;10.124;2023-04-03T03:31:04;7.77;;;3.03;;
18651;SDS011;9455;54.302;10.124;2023-04-03T03:33:33;8.17;;;2.40;;
18651;SDS011;9455;54.302;10.124;2023-04-03T03:35:59;3.63;;;2.57;;
18651;SDS011;9455;54.302;10.124;2023-04-03T03:38:26;2.87;;;2.57;;
18651;SDS011;9455;54.302;10.124;2023-04-03T03:40:53;5.57;;;2.80;;
18651;SDS011;9455;54.302;10.124;2023-04-03T03:43:19;7.13;;;2.87;;
18651;SDS011;9455;54.302;10.124;2023-04-03T03:45:49;5.70;;;3.00;;
18651;SDS011;9455;54.302;10.124;2023-04-03T03:48:16;3.40;;;2.53;;
18651;SDS011;9455;54.302;10.124;2023-04-03T03:50:44;10.43;;;3.23;;
18651;SDS011;9455;54.302;10.124;2023-04-03T03:53:11;4.60;;;2.30;;
18651;SDS011;9455;54.302;10.124;2023-04-03T03:55:37;4.20;;;2.40;;
18651;SDS011;9455;54.302;10.124;2023-04-03T03:58:04;2.30;;;2.17;;
18651;SDS011;9455;54.302;10.124;2023-04-03T04:00:31;12.43;;;2.80;;
18651;SDS011;9455;54.302;10.124;2023-04-03T04:02:57;5.37;;;2.20;;
18651;SDS011;9455;54.302;10.124;2023-04-03T04:05:24;5.83;;;2.70;;
18651;SDS011;9455;54.302;10.124;2023-04-03T04:07:52;5.87;;;2.63;;
18651;SDS011;9455;54.302;10.124;2023-04-03T04:10:19;7.30;;;2.37;;
18651;SDS011;9455;54.302;10.124;2023-04-03T04:12:45;2.63;;;2.43;;
18651;SDS011;9455;54.302;10.124;2023-04-03T04:15:14;4.00;;;2.50;;
18651;SDS011;9455;54.302;10.124;2023-04-03T04:17:40;9.93;;;2.47;;
18651;SDS011;9455;54.302;10.124;2023-04-03T04:20:07;2.47;;;2.27;;
18651;SDS011;9455;54.302;10.124;2023-04-03T04:22:34;5.27;;;2.57;;
18651;SDS011;9455;54.302;10.124;2023-04-03T04:25:02;8.97;;;2.97;;
18651;SDS011;9455;54.302;10.124;2023-04-03T04:27:29;5.97;;;3.00;;
18651;SDS011;9455;54.302;10.124;2023-04-03T04:29:55;7.77;;;2.90;;
18651;SDS011;9455;54.302;10.124;2023-04-03T04:32:22;3.10;;;2.60;;
18651;SDS011;9455;54.302;10.124;2023-04-03T04:34:49;2.87;;;2.67;;
18651;SDS011;9455;54.302;10.124;2023-04-03T04:37:15;8.20;;;3.00;;
18651;SDS011;9455;54.302;10.124;2023-04-03T04:39:42;4.00;;;2.80;;
18651;SDS011;9455;54.302;10.124;2023-04-03T04:42:10;7.53;;;3.30;;
18651;SDS011;9455;54.302;10.124;2023-04-03T04:44:37;4.33;;;3.00;;
18651;SDS011;9455;54.302;10.124;2023-04-03T04:47:04;10.33;;;3.13;;
18651;SDS011;9455;54.302;10.124;2023-04-03T04:49:31;5.63;;;2.90;;
18651;SDS011;9455;54.302;10.124;2023-04-03T04:51:57;4.57;;;3.13;;
18651;SDS011;9455;54.302;10.124;2023-04-03T04:54:24;6.43;;;3.60;;
18651;SDS011;9455;54.302;10.124;2023-04-03T04:56:50;7.20;;;3.17;;
18651;SDS011;9455;54.302;10.124;2023-04-03T04:59:18;14.47;;;5.70;;
18651;SDS011;9455;54.302;10.124;2023-04-03T05:01:45;18.97;;;8.13;;
18651;SDS011;9455;54.302;10.124;2023-04-03T05:04:12;21.93;;;7.47;;
18651;SDS011;9455;54.302;10.124;2023-04-03T05:06:38;8.60;;;4.50;;
18651;SDS011;9455;54.302;10.124;2023-04-03T05:09:05;6.80;;;4.60;;
18651;SDS011;9455;54.302;10.124;2023-04-03T05:11:32;6.47;;;4.13;;
18651;SDS011;9455;54.302;10.124;2023-04-03T05:13:58;6.10;;;3.97;;
18651;SDS011;9455;54.302;10.124;2023-04-03T05:16:26;7.67;;;5.40;;
18651;SDS011;9455;54.302;10.124;2023-04-03T05:18:53;8.93;;;4.80;;
18651;SDS011;9455;54.302;10.124;2023-04-03T05:21:20;13.23;;;4.93;;
18651;SDS011;9455;54.302;10.124;2023-04-03T05:23:48;12.13;;;4.93;;
18651;SDS011;9455;54.302;10.124;2023-04-03T05:26:15;9.37;;;4.03;;
18651;SDS011;9455;54.302;10.124;2023-04-03T05:28:41;9.83;;;5.03;;
18651;SDS011;9455;54.302;10.124;2023-04-03T05:31:08;7.87;;;5.60;;
18651;SDS011;9455;54.302;10.124;2023-04-03T05:33:36;12.90;;;4.80;;
18651;SDS011;9455;54.302;10.124;2023-04-03T05:36:03;5.80;;;4.20;;
18651;SDS011;9455;54.302;10.124;2023-04-03T05:38:30;8.50;;;5.20;;
18651;SDS011;9455;54.302;10.124;2023-04-03T05:40:58;5.97;;;4.40;;
18651;SDS011;9455;54.302;10.124;2023-04-03T05:43:25;13.37;;;7.30;;
18651;SDS011;9455;54.302;10.124;2023-04-03T05:45:51;13.10;;;6.20;;
18651;SDS011;9455;54.302;10.124;2023-04-03T05:48:18;12.83;;;6.30;;
18651;SDS011;9455;54.302;10.124;2023-04-03T05:50:46;20.23;;;5.77;;
18651;SDS011;9455;54.302;10.124;2023-04-03T05:53:15;10.40;;;5.50;;
18651;SDS011;9455;54.302;10.124;2023-04-03T05:55:44;7.40;;;4.83;;
18651;SDS011;9455;54.302;10.124;2023-04-03T05:58:10;9.13;;;4.20;;
18651;SDS011;9455;54.302;10.124;2023-04-03T06:00:37;6.67;;;3.73;;
18651;SDS011;9455;54.302;10.124;2023-04-03T06:03:04;13.37;;;3.37;;
18651;SDS011;9455;54.302;10.124;2023-04-03T06:05:31;5.97;;;3.20;;
18651;SDS011;9455;54.302;10.124;2023-04-03T06:07:59;7.23;;;3.40;;
18651;SDS011;9455;54.302;10.124;2023-04-03T06:10:25;8.67;;;3.63;;
18651;SDS011;9455;54.302;10.124;2023-04-03T06:12:52;5.93;;;3.67;;
18651;SDS011;9455;54.302;10.124;2023-04-03T06:15:19;5.87;;;3.40;;
18651;SDS011;9455;54.302;10.124;2023-04-03T06:17:46;13.80;;;3.77;;
18651;SDS011;9455;54.302;10.124;2023-04-03T06:20:13;3.93;;;3.53;;
18651;SDS011;9455;54.302;10.124;2023-04-03T06:22:39;14.97;;;4.53;;
18651;SDS011;9455;54.302;10.124;2023-04-03T06:25:08;8.70;;;4.20;;
18651;SDS011;9455;54.302;10.124;2023-04-03T06:27:35;10.10;;;4.13;;
18651;SDS011;9455;54.302;10.124;2023-04-03T06:30:02;8.07;;;3.90;;
18651;SDS011;9455;54.302;10.124;2023-04-03T06:32:30;7.40;;;4.00;;
18651;SDS011;9455;54.302;10.124;2023-04-03T06:34:56;7.53;;;4.20;;
18651;SDS011;9455;54.302;10.124;2023-04-03T06:37:23;10.00;;;4.47;;
18651;SDS011;9455;54.302;10.124;2023-04-03T06:39:53;7.87;;;4.40;;
18651;SDS011;9455;54.302;10.124;2023-04-03T06:42:21;10.00;;;4.90;;
18651;SDS011;9455;54.302;10.124;2023-04-03T06:44:47;11.57;;;4.70;;
18651;SDS011;9455;54.302;10.124;2023-04-03T06:47:14;11.37;;;4.17;;
18651;SDS011;9455;54.302;10.124;2023-04-03T06:49:42;7.83;;;4.13;;
18651;SDS011;9455;54.302;10.124;2023-04-03T06:52:09;9.50;;;3.60;;
18651;SDS011;9455;54.302;10.124;2023-04-03T06:54:37;5.50;;;3.97;;
18651;SDS011;9455;54.302;10.124;2023-04-03T06:57:03;5.90;;;4.00;;
18651;SDS011;9455;54.302;10.124;2023-04-03T06:59:31;9.47;;;4.00;;
18651;SDS011;9455;54.302;10.124;2023-04-03T07:01:58;6.00;;;3.63;;
18651;SDS011;9455;54.302;10.124;2023-04-03T07:04:25;10.37;;;2.97;;
18651;SDS011;9455;54.302;10.124;2023-04-03T07:06:51;4.37;;;2.37;;
18651;SDS011;9455;54.302;10.124;2023-04-03T07:09:18;7.13;;;2.10;;
18651;SDS011;9455;54.302;10.124;2023-04-03T07:11:45;7.10;;;1.80;;
18651;SDS011;9455;54.302;10.124;2023-04-03T07:14:12;5.83;;;2.10;;
18651;SDS011;9455;54.302;10.124;2023-04-03T07:16:40;4.00;;;2.20;;
18651;SDS011;9455;54.302;10.124;2023-04-03T07:19:07;1.87;;;1.70;;
18651;SDS011;9455;54.302;10.124;2023-04-03T07:21:33;9.60;;;1.90;;
18651;SDS011;9455;54.302;10.124;2023-04-03T07:24:00;1.97;;;1.60;;
18651;SDS011;9455;54.302;10.124;2023-04-03T07:26:27;4.97;;;1.83;;
18651;SDS011;9455;54.302;10.124;2023-04-03T07:28:53;14.47;;;2.40;;
18651;SDS011;9455;54.302;10.124;2023-04-03T07:31:20;6.20;;;2.40;;
18651;SDS011;9455;54.302;10.124;2023-04-03T07:33:48;7.70;;;2.00;;
18651;SDS011;9455;54.302;10.124;2023-04-03T07:36:16;3.03;;;2.17;;
18651;SDS011;9455;54.302;10.124;2023-04-03T07:38:44;10.00;;;2.07;;
18651;SDS011;9455;54.302;10.124;2023-04-03T07:41:11;6.87;;;2.00;;
18651;SDS011;9455;54.302;10.124;2023-04-03T07:43:40;8.53;;;1.70;;
18651;SDS011;9455;54.302;10.124;2023-04-03T07:46:07;9.00;;;2.00;;
18651;SDS011;9455;54.302;10.124;2023-04-03T07:48:34;14.43;;;2.33;;
18651;SDS011;9455;54.302;10.124;2023-04-03T07:51:03;2.57;;;1.43;;
18651;SDS011;9455;54.302;10.124;2023-04-03T07:53:31;8.07;;;1.47;;
18651;SDS011;9455;54.302;10.124;2023-04-03T07:55:58;16.73;;;1.50;;
18651;SDS011;9455;54.302;10.124;2023-04-03T07:58:26;1.93;;;1.27;;
18651;SDS011;9455;54.302;10.124;2023-04-03T08:00:53;5.27;;;1.40;;
18651;SDS011;9455;54.302;10.124;2023-04-03T08:03:19;2.67;;;1.00;;
18651;SDS011;9455;54.302;10.124;2023-04-03T08:05:48;1.90;;;1.30;;
18651;SDS011;9455;54.302;10.124;2023-04-03T08:08:17;3.80;;;1.37;;
18651;SDS011;9455;54.302;10.124;2023-04-03T08:10:47;1.73;;;1.63;;
18651;SDS011;9455;54.302;10.124;2023-04-03T08:13:15;2.27;;;0.90;;
18651;SDS011;9455;54.302;10.124;2023-04-03T08:15:41;3.83;;;1.33;;
18651;SDS011;9455;54.302;10.124;2023-04-03T08:18:08;2.47;;;0.90;;
18651;SDS011;9455;54.302;10.124;2023-04-03T08:20:35;1.70;;;1.20;;
18651;SDS011;9455;54.302;10.124;2023-04-03T08:23:03;1.10;;;0.97;;
18651;SDS011;9455;54.302;10.124;2023-04-03T08:25:31;5.50;;;1.00;;
18651;SDS011;9455;54.302;10.124;2023-04-03T08:27:58;1.27;;;1.00;;
18651;SDS011;9455;54.302;10.124;2023-04-03T08:30:25;3.63;;;0.80;;
18651;SDS011;9455;54.302;10.124;2023-04-03T08:32:51;2.33;;;1.27;;
18651;SDS011;9455;54.302;10.124;2023-04-03T08:35:18;1.03;;;1.00;;
18651;SDS011;9455;54.302;10.124;2023-04-03T08:37:45;0.83;;;0.80;;
18651;SDS011;9455;54.302;10.124;2023-04-03T08:40:12;2.80;;;0.70;;
18651;SDS011;9455;54.302;10.124;2023-04-03T08:42:44;2.20;;;1.47;;
18651;SDS011;9455;54.302;10.124;2023-04-03T08:45:19;1.33;;;0.77;;
18651;SDS011;9455;54.302;10.124;2023-04-03T08:47:53;1.47;;;0.57;;
18651;SDS011;9455;54.302;10.124;2023-04-03T08:50:29;2.73;;;0.80;;
18651;SDS011;9455;54.302;10.124;2023-04-03T08:53:00;0.57;;;0.57;;
18651;SDS011;9455;54.302;10.124;2023-04-03T08:55:31;0.63;;;0.60;;
18651;SDS011;9455;54.302;10.124;2023-04-03T08:58:03;1.10;;;0.90;;
18651;SDS011;9455;54.302;10.124;2023-04-03T09:00:32;1.63;;;1.03;;
18651;SDS011;9455;54.302;10.124;2023-04-03T09:03:10;0.80;;;0.70;;
18651;SDS011;9455;54.302;10.124;2023-04-03T09:05:39;2.57;;;0.60;;
18651;SDS011;9455;54.302;10.124;2023-04-03T09:08:13;0.70;;;0.70;;
18651;SDS011;9455;54.302;10.124;2023-04-03T09:10:47;0.53;;;0.53;;
18651;SDS011;9455;54.302;10.124;2023-04-03T09:13:20;1.23;;;0.73;;
18651;SDS011;9455;54.302;10.124;2023-04-03T09:15:53;2.73;;;1.00;;
18651;SDS011;9455;54.302;10.124;2023-04-03T09:18:22;3.47;;;0.90;;
18651;SDS011;9455;54.302;10.124;2023-04-03T09:20:56;7.63;;;0.60;;
18651;SDS011;9455;54.302;10.124;2023-04-03T09:23:29;2.70;;;0.73;;
18651;SDS011;9455;54.302;10.124;2023-04-03T09:26:01;4.33;;;1.10;;
18651;SDS011;9455;54.302;10.124;2023-04-03T09:28:32;5.67;;;1.17;;
18651;SDS011;9455;54.302;10.124;2023-04-03T09:31:02;1.20;;;1.00;;
18651;SDS011;9455;54.302;10.124;2023-04-03T09:33:39;1.20;;;1.10;;
18651;SDS011;9455;54.302;10.124;2023-04-03T09:36:06;2.93;;;1.00;;
18651;SDS011;9455;54.302;10.124;2023-04-03T09:38:33;5.80;;;0.97;;
18651;SDS011;9455;54.302;10.124;2023-04-03T09:41:04;2.50;;;0.90;;
18651;SDS011;9455;54.302;10.124;2023-04-03T09:43:34;1.90;;;1.10;;
18651;SDS011;9455;54.302;10.124;2023-04-03T09:48:51;3.90;;;0.93;;
18651;SDS011;9455;54.302;10.124;2023-04-03T09:51:24;3.40;;;0.93;;
18651;SDS011;9455;54.302;10.124;2023-04-03T09:53:52;2.30;;;0.80;;
18651;SDS011;9455;54.302;10.124;2023-04-03T09:56:20;0.73;;;0.73;;
18651;SDS011;9455;54.302;10.124;2023-04-03T09:58:53;3.30;;;1.33;;
18651;SDS011;9455;54.302;10.124;2023-04-03T10:01:34;1.00;;;1.00;;
18651;SDS011;9455;54.302;10.124;2023-04-03T10:04:04;1.63;;;0.63;;
18651;SDS011;9455;54.302;10.124;2023-04-03T10:06:33;2.03;;;0.90;;
18651;SDS011;9455;54.302;10.124;2023-04-03T10:09:02;2.80;;;1.00;;
18651;SDS011;9455;54.302;10.124;2023-04-03T10:11:31;4.63;;;1.00;;
18651;SDS011;9455;54.302;10.124;2023-04-03T10:13:59;3.13;;;0.60;;
18651;SDS011;9455;54.302;10.124;2023-04-03T10:16:32;2.07;;;0.90;;
18651;SDS011;9455;54.302;10.124;2023-04-03T10:19:40;2.80;;;1.10;;
18651;SDS011;9455;54.302;10.124;2023-04-03T10:22:13;7.33;;;2.30;;
18651;SDS011;9455;54.302;10.124;2023-04-03T10:24:48;6.43;;;2.63;;
18651;SDS011;9455;54.302;10.124;2023-04-03T10:27:22;4.70;;;1.83;;
18651;SDS011;9455;54.302;10.124;2023-04-03T10:29:59;2.07;;;0.83;;
18651;SDS011;9455;54.302;10.124;2023-04-03T10:32:41;1.60;;;0.73;;
18651;SDS011;9455;54.302;10.124;2023-04-03T10:35:18;4.67;;;1.07;;
18651;SDS011;9455;54.302;10.124;2023-04-03T10:37:53;3.80;;;0.80;;
18651;SDS011;9455;54.302;10.124;2023-04-03T10:40:29;1.33;;;0.90;;
18651;SDS011;9455;54.302;10.124;2023-04-03T10:43:02;1.00;;;0.90;;
18651;SDS011;9455;54.302;10.124;2023-04-03T10:45:43;1.20;;;0.90;;
18651;SDS011;9455;54.302;10.124;2023-04-03T10:48:18;2.33;;;1.10;;
18651;SDS011;9455;54.302;10.124;2023-04-03T10:50:57;5.17;;;1.00;;
18651;SDS011;9455;54.302;10.124;2023-04-03T10:53:34;7.80;;;1.20;;
18651;SDS011;9455;54.302;10.124;2023-04-03T10:56:08;1.23;;;1.13;;
18651;SDS011;9455;54.302;10.124;2023-04-03T10:58:43;1.93;;;1.27;;
18651;SDS011;9455;54.302;10.124;2023-04-03T11:01:12;0.70;;;0.70;;
18651;SDS011;9455;54.302;10.124;2023-04-03T11:03:43;4.17;;;1.03;;
18651;SDS011;9455;54.302;10.124;2023-04-03T11:06:14;1.37;;;1.00;;
18651;SDS011;9455;54.302;10.124;2023-04-03T11:08:44;1.50;;;0.90;;
18651;SDS011;9455;54.302;10.124;2023-04-03T11:11:14;1.57;;;0.60;;
18651;SDS011;9455;54.302;10.124;2023-04-03T11:13:45;1.63;;;0.80;;
18651;SDS011;9455;54.302;10.124;2023-04-03T11:16:17;1.20;;;0.87;;
18651;SDS011;9455;54.302;10.124;2023-04-03T11:18:48;2.83;;;1.10;;
18651;SDS011;9455;54.302;10.124;2023-04-03T11:21:21;1.37;;;0.73;;
18651;SDS011;9455;54.302;10.124;2023-04-03T11:23:52;1.33;;;0.70;;
18651;SDS011;9455;54.302;10.124;2023-04-03T11:26:24;3.37;;;0.53;;
18651;SDS011;9455;54.302;10.124;2023-04-03T11:28:56;1.60;;;0.73;;
18651;SDS011;9455;54.302;10.124;2023-04-03T11:31:39;0.73;;;0.53;;
18651;SDS011;9455;54.302;10.124;2023-04-03T11:34:19;3.80;;;0.60;;
18651;SDS011;9455;54.302;10.124;2023-04-03T11:36:56;5.20;;;0.80;;
18651;SDS011;9455;54.302;10.124;2023-04-03T11:39:26;1.13;;;0.60;;
18651;SDS011;9455;54.302;10.124;2023-04-03T11:44:42;0.73;;;0.70;;
18651;SDS011;9455;54.302;10.124;2023-04-03T11:47:10;0.47;;;0.40;;
18651;SDS011;9455;54.302;10.124;2023-04-03T11:55:43;0.73;;;0.73;;
18651;SDS011;9455;54.302;10.124;2023-04-03T11:58:13;3.07;;;0.60;;
18651;SDS011;9455;54.302;10.124;2023-04-03T12:00:48;0.87;;;0.87;;
18651;SDS011;9455;54.302;10.124;2023-04-03T12:03:30;2.67;;;1.40;;
18651;SDS011;9455;54.302;10.124;2023-04-03T12:12:33;3.40;;;0.53;;
18651;SDS011;9455;54.302;10.124;2023-04-03T12:15:12;1.60;;;0.70;;
18651;SDS011;9455;54.302;10.124;2023-04-03T12:17:45;0.65;;;0.65;;
18651;SDS011;9455;54.302;10.124;2023-04-03T12:23:29;2.40;;;0.77;;
18651;SDS011;9455;54.302;10.124;2023-04-03T12:26:05;4.10;;;1.20;;
18651;SDS011;9455;54.302;10.124;2023-04-03T12:28:48;0.83;;;0.50;;
18651;SDS011;9455;54.302;10.124;2023-04-03T12:31:18;2.87;;;0.80;;
18651;SDS011;9455;54.302;10.124;2023-04-03T12:36:42;4.03;;;0.73;;
18651;SDS011;9455;54.302;10.124;2023-04-03T12:39:20;2.30;;;1.33;;
18651;SDS011;9455;54.302;10.124;2023-04-03T12:42:12;0.83;;;0.63;;
18651;SDS011;9455;54.302;10.124;2023-04-03T12:44:53;2.33;;;0.80;;
18651;SDS011;9455;54.302;10.124;2023-04-03T12:47:28;3.10;;;0.83;;
18651;SDS011;9455;54.302;10.124;2023-04-03T12:49:58;3.43;;;0.80;;
18651;SDS011;9455;54.302;10.124;2023-04-03T12:52:35;4.83;;;0.87;;
18651;SDS011;9455;54.302;10.124;2023-04-03T12:55:11;1.80;;;0.83;;
18651;SDS011;9455;54.302;10.124;2023-04-03T12:57:41;3.43;;;0.63;;
18651;SDS011;9455;54.302;10.124;2023-04-03T13:00:25;3.40;;;0.80;;
18651;SDS011;9455;54.302;10.124;2023-04-03T13:02:55;1.20;;;0.73;;
18651;SDS011;9455;54.302;10.124;2023-04-03T13:05:22;5.13;;;1.33;;
18651;SDS011;9455;54.302;10.124;2023-04-03T13:07:51;2.20;;;0.80;;
18651;SDS011;9455;54.302;10.124;2023-04-03T13:10:22;2.47;;;1.13;;
18651;SDS011;9455;54.302;10.124;2023-04-03T13:12:49;3.20;;;0.80;;
18651;SDS011;9455;54.302;10.124;2023-04-03T13:15:17;7.20;;;1.03;;
18651;SDS011;9455;54.302;10.124;2023-04-03T13:17:47;1.33;;;1.00;;
18651;SDS011;9455;54.302;10.124;2023-04-03T13:20:17;2.03;;;0.80;;
18651;SDS011;9455;54.302;10.124;2023-04-03T13:22:49;0.80;;;0.70;;
18651;SDS011;9455;54.302;10.124;2023-04-03T13:25:21;1.17;;;0.83;;
18651;SDS011;9455;54.302;10.124;2023-04-03T13:27:50;1.83;;;0.83;;
18651;SDS011;9455;54.302;10.124;2023-04-03T13:30:22;0.70;;;0.70;;
18651;SDS011;9455;54.302;10.124;2023-04-03T13:32:52;2.87;;;0.70;;
18651;SDS011;9455;54.302;10.124;2023-04-03T13:35:27;1.13;;;0.70;;
18651;SDS011;9455;54.302;10.124;2023-04-03T13:38:01;1.60;;;1.00;;
18651;SDS011;9455;54.302;10.124;2023-04-03T13:40:29;1.77;;;0.73;;
18651;SDS011;9455;54.302;10.124;2023-04-03T13:43:00;0.83;;;0.83;;
18651;SDS011;9455;54.302;10.124;2023-04-03T13:45:28;4.93;;;0.93;;
18651;SDS011;9455;54.302;10.124;2023-04-03T13:48:08;2.50;;;1.13;;
18651;SDS011;9455;54.302;10.124;2023-04-03T13:53:22;2.00;;;1.20;;
18651;SDS011;9455;54.302;10.124;2023-04-03T13:55:53;1.17;;;1.00;;
18651;SDS011;9455;54.302;10.124;2023-04-03T13:58:26;4.00;;;1.30;;
18651;SDS011;9455;54.302;10.124;2023-04-03T14:00:54;3.73;;;1.17;;
18651;SDS011;9455;54.302;10.124;2023-04-03T14:03:24;2.20;;;1.00;;
18651;SDS011;9455;54.302;10.124;2023-04-03T14:05:54;2.63;;;0.93;;
18651;SDS011;9455;54.302;10.124;2023-04-03T14:08:21;0.80;;;0.80;;
18651;SDS011;9455;54.302;10.124;2023-04-03T14:10:48;3.47;;;1.03;;
18651;SDS011;9455;54.302;10.124;2023-04-03T14:13:17;1.63;;;1.23;;
18651;SDS011;9455;54.302;10.124;2023-04-03T14:15:45;3.67;;;1.10;;
18651;SDS011;9455;54.302;10.124;2023-04-03T14:18:14;6.80;;;1.30;;
18651;SDS011;9455;54.302;10.124;2023-04-03T14:20:43;7.50;;;1.10;;
18651;SDS011;9455;54.302;10.124;2023-04-03T14:23:11;5.20;;;1.33;;
18651;SDS011;9455;54.302;10.124;2023-04-03T14:25:37;2.70;;;0.83;;
18651;SDS011;9455;54.302;10.124;2023-04-03T14:28:12;1.63;;;0.90;;
18651;SDS011;9455;54.302;10.124;2023-04-03T14:30:41;2.40;;;1.10;;
18651;SDS011;9455;54.302;10.124;2023-04-03T14:33:09;1.23;;;1.00;;
18651;SDS011;9455;54.302;10.124;2023-04-03T14:35:38;0.90;;;0.90;;
18651;SDS011;9455;54.302;10.124;2023-04-03T14:38:09;7.83;;;2.00;;
18651;SDS011;9455;54.302;10.124;2023-04-03T14:40:46;1.40;;;1.07;;
18651;SDS011;9455;54.302;10.124;2023-04-03T14:43:12;2.07;;;0.90;;
18651;SDS011;9455;54.302;10.124;2023-04-03T14:45:40;1.83;;;0.93;;
18651;SDS011;9455;54.302;10.124;2023-04-03T14:48:09;4.03;;;0.80;;
18651;SDS011;9455;54.302;10.124;2023-04-03T14:50:41;3.43;;;0.97;;
18651;SDS011;9455;54.302;10.124;2023-04-03T14:53:10;7.40;;;1.27;;
18651;SDS011;9455;54.302;10.124;2023-04-03T14:55:39;4.97;;;1.20;;
18651;SDS011;9455;54.302;10.124;2023-04-03T14:58:08;2.03;;;0.53;;
18651;SDS011;9455;54.302;10.124;2023-04-03T15:00:38;2.33;;;1.23;;
18651;SDS011;9455;54.302;10.124;2023-04-03T15:03:05;1.03;;;0.80;;
18651;SDS011;9455;54.302;10.124;2023-04-03T15:05:32;4.27;;;1.00;;
18651;SDS011;9455;54.302;10.124;2023-04-03T15:07:58;2.13;;;1.37;;
18651;SDS011;9455;54.302;10.124;2023-04-03T15:10:27;2.13;;;0.93;;
18651;SDS011;9455;54.302;10.124;2023-04-03T15:12:55;6.00;;;1.60;;
18651;SDS011;9455;54.302;10.124;2023-04-03T15:15:22;1.03;;;0.90;;
18651;SDS011;9455;54.302;10.124;2023-04-03T15:17:50;1.87;;;1.07;;
18651;SDS011;9455;54.302;10.124;2023-04-03T15:20:20;1.87;;;0.87;;
18651;SDS011;9455;54.302;10.124;2023-04-03T15:22:49;0.80;;;0.80;;
18651;SDS011;9455;54.302;10.124;2023-04-03T15:25:16;1.90;;;1.03;;